Time;durP1;ratioP1;P1;durP2;ratioP2;P2;SDS_P1;SDS_P2;PMS_P1;PMS_P2;Temp;Humidity;BMP_temperature;BMP_pressure;BME280_temperature;BME280_humidity;BME280_pressure;Samples;Min_cycle;Max_cycle;Signal;HPM_P1;HPM_P2
2022/05/21 00:01:59;;;;;;;0.00;0.00;;;11.40;99.90;;;;;;4997458;28;20042;-71
2022/05/21 00:04:26;;;;;;;0.00;0.00;;;11.40;99.90;;;;;;4996331;28;20068;-70
2022/05/21 00:06:55;;;;;;;0.00;0.00;;;11.30;99.90;;;;;;4997375;28;20489;-73
2022/05/21 00:09:23;;;;;;;0.00;0.00;;;11.30;99.90;;;;;;4997245;28;20042;-73
2022/05/21 00:11:50;;;;;;;0.00;0.00;;;11.40;99.90;;;;;;4996052;28;20373;-72
2022/05/21 00:14:20;;;;;;;0.00;0.00;;;11.40;99.90;;;;;;4997292;28;20496;-70
2022/05/21 00:16:48;;;;;;;0.00;0.00;;;11.40;99.90;;;;;;4996321;28;20365;-71
2022/05/21 00:19:16;;;;;;;0.00;0.00;;;11.50;99.90;;;;;;4995846;28;20062;-71
2022/05/21 00:21:43;;;;;;;0.00;0.00;;;11.40;99.90;;;;;;4997075;28;20043;-74
2022/05/21 00:24:11;;;;;;;0.00;0.00;;;11.40;99.90;;;;;;4980019;28;20050;-70
2022/05/21 00:26:39;;;;;;;0.00;0.00;;;11.40;99.90;;;;;;4995909;28;20057;-71
2022/05/21 00:29:06;;;;;;;0.00;0.00;;;11.40;99.90;;;;;;4996984;28;20039;-71
2022/05/21 00:31:34;;;;;;;0.00;0.00;;;11.40;99.90;;;;;;4995629;28;20057;-73
2022/05/21 00:34:03;;;;;;;0.00;0.00;;;11.40;99.90;;;;;;4980261;28;20065;-70
2022/05/21 00:36:30;;;;;;;0.00;0.00;;;11.40;99.90;;;;;;4996592;28;20046;-70
2022/05/21 00:38:58;;;;;;;0.00;0.00;;;11.40;99.90;;;;;;4995550;28;20063;-70
2022/05/21 00:41:25;;;;;;;0.00;0.00;;;11.40;99.90;;;;;;4996678;28;20057;-74
2022/05/21 00:43:56;;;;;;;0.00;0.00;;;11.50;99.90;;;;;;4996347;28;20042;-70
2022/05/21 00:46:30;;;;;;;0.00;0.00;;;11.40;99.90;;;;;;4995448;28;20047;-72
2022/05/21 00:49:22;;;;;;;0.00;0.00;;;11.30;99.90;;;;;;4997020;28;20038;-73
2022/05/21 00:51:52;;;;;;;0.00;0.00;;;11.40;99.90;;;;;;4995442;28;20046;-74
2022/05/21 00:54:27;;;;;;;0.00;0.00;;;11.40;99.90;;;;;;4996408;28;20046;-72
2022/05/21 00:57:01;;;;;;;0.00;0.00;;;11.40;99.90;;;;;;4996268;28;20054;-73
2022/05/21 00:59:47;;;;;;;0.28;0.28;;;11.40;99.90;;;;;;4995282;28;20065;-69
2022/05/21 01:02:23;;;;;;;0.00;0.00;;;11.40;99.90;;;;;;4996235;28;20042;-72
2022/05/21 01:04:51;;;;;;;0.00;0.00;;;11.30;99.90;;;;;;4995148;28;20050;-69
2022/05/21 01:07:18;;;;;;;0.00;0.00;;;11.40;99.90;;;;;;4996049;28;20039;-73
2022/05/21 01:09:52;;;;;;;0.00;0.00;;;11.40;99.90;;;;;;4996576;28;20042;-72
2022/05/21 01:12:23;;;;;;;0.00;0.00;;;11.40;99.90;;;;;;4994901;28;20457;-71
2022/05/21 01:14:54;;;;;;;0.00;0.00;;;11.40;99.90;;;;;;4995979;28;20465;-69
2022/05/21 01:17:23;;;;;;;0.00;0.00;;;11.40;99.90;;;;;;4979026;28;20050;-72
2022/05/21 01:20:06;;;;;;;0.00;0.00;;;11.40;99.90;;;;;;4994689;28;20069;-69
2022/05/21 01:22:48;;;;;;;0.00;0.00;;;11.30;99.90;;;;;;4995765;28;20054;-72
2022/05/21 01:25:21;;;;;;;0.00;0.00;;;11.30;99.90;;;;;;4994814;28;20046;-70
2022/05/21 01:27:50;;;;;;;0.10;0.10;;;11.30;99.90;;;;;;4995583;28;20050;-75
2022/05/21 01:30:23;;;;;;;0.00;0.00;;;11.20;99.90;;;;;;4996074;28;20385;-73
2022/05/21 01:32:50;;;;;;;0.00;0.00;;;11.30;99.90;;;;;;4977847;28;20050;-71
2022/05/21 01:35:19;;;;;;;0.00;0.00;;;11.30;99.90;;;;;;4978857;28;20061;-74
2022/05/21 01:37:47;;;;;;;0.00;0.00;;;11.20;99.90;;;;;;4994655;28;20054;-71
2022/05/21 01:40:17;;;;;;;0.00;0.00;;;11.20;99.90;;;;;;4995417;28;20057;-72
2022/05/21 01:44:37;;;;;;;0.00;0.00;;;11.10;99.90;;;;;;4995874;28;20042;-73
2022/05/21 01:45:33;;;;;;;0.00;0.00;;;11.20;99.90;;;;;;4994272;28;20496;-74
2022/05/21 01:48:02;;;;;;;0.10;0.05;;;11.20;99.90;;;;;;4995648;28;20454;-73
2022/05/21 01:50:30;;;;;;;0.00;0.00;;;11.10;99.90;;;;;;4995417;28;20057;-74
2022/05/21 01:52:58;;;;;;;;;;;11.20;99.90;;;;;;5006156;28;20465;-70
2022/05/21 01:55:25;;;;;;;0.00;0.00;;;11.10;99.90;;;;;;4993445;28;20360;-70
2022/05/21 01:57:53;;;;;;;0.00;0.00;;;11.10;99.90;;;;;;4993988;28;20054;-70
2022/05/21 02:00:21;;;;;;;0.00;0.00;;;11.10;99.90;;;;;;4995305;28;20126;-74
2022/05/21 02:02:48;;;;;;;0.00;0.00;;;11.00;99.90;;;;;;4994935;28;20049;-70
2022/05/21 02:05:17;;;;;;;0.00;0.00;;;11.00;99.90;;;;;;4994094;28;20042;-70
2022/05/21 02:07:44;;;;;;;;;;;11.00;99.90;;;;;;4995603;28;20049;-73
2022/05/21 02:10:12;;;;;;;0.00;0.00;;;11.00;99.90;;;;;;4978325;28;19929;-75
2022/05/21 02:12:40;;;;;;;0.00;0.00;;;11.00;99.90;;;;;;4994217;28;20054;-75
2022/05/21 02:15:07;;;;;;;0.00;0.00;;;11.00;99.90;;;;;;4995184;28;20046;-70
2022/05/21 02:17:35;;;;;;;0.00;0.00;;;10.90;99.90;;;;;;4994565;28;20054;-72
2022/05/21 02:20:03;;;;;;;0.00;0.00;;;10.90;99.90;;;;;;4995097;28;20078;-71
2022/05/21 02:22:31;;;;;;;0.00;0.00;;;10.90;99.90;;;;;;4995201;28;20058;-73
2022/05/21 02:24:59;;;;;;;0.00;0.00;;;10.90;99.90;;;;;;4993984;28;20054;-75
2022/05/21 02:27:27;;;;;;;1.13;1.02;;;10.80;99.90;;;;;;4995222;28;20042;-75
2022/05/21 02:29:54;;;;;;;0.00;0.00;;;10.80;99.90;;;;;;4995188;28;20058;-72
2022/05/21 02:32:22;;;;;;;0.00;0.00;;;10.80;99.90;;;;;;4993945;28;20054;-72
2022/05/21 02:34:49;;;;;;;0.00;0.00;;;10.80;99.90;;;;;;4995009;28;20073;-71
2022/05/21 02:40:04;;;;;;;0.00;0.00;;;10.70;99.90;;;;;;4998418;28;20398;-74
2022/05/21 02:42:45;;;;;;;0.00;0.00;;;10.70;99.90;;;;;;4998856;28;20047;-75
2022/05/21 02:45:20;;;;;;;0.00;0.00;;;10.60;99.90;;;;;;4998176;28;20042;-74
2022/05/21 02:47:49;;;;;;;0.00;0.00;;;10.60;99.90;;;;;;4998771;28;20054;-70
2022/05/21 02:50:21;;;;;;;0.00;0.00;;;10.60;99.90;;;;;;4998953;28;20049;-71
2022/05/21 02:52:49;;;;;;;0.00;0.00;;;10.60;99.90;;;;;;4980707;28;20365;-71
2022/05/21 02:55:17;;;;;;;0.00;0.00;;;10.60;99.90;;;;;;4998584;28;20050;-72
2022/05/21 02:57:45;;;;;;;0.00;0.00;;;10.50;99.90;;;;;;4997820;28;20042;-71
2022/05/21 03:00:25;;;;;;;0.00;0.00;;;10.50;99.90;;;;;;4998468;28;20495;-71
2022/05/21 03:02:54;;;;;;;0.00;0.00;;;10.50;99.90;;;;;;4981824;28;20054;-72
2022/05/21 03:05:22;;;;;;;0.00;0.00;;;10.60;99.90;;;;;;4997321;28;20054;-71
2022/05/21 03:07:51;;;;;;;0.00;0.00;;;10.50;99.90;;;;;;4998181;28;20492;-70
2022/05/21 03:10:28;;;;;;;0.00;0.00;;;10.60;99.90;;;;;;4998321;28;20050;-74
2022/05/21 03:13:01;;;;;;;0.00;0.00;;;10.60;99.90;;;;;;4980062;28;20062;-72
2022/05/21 03:15:37;;;;;;;0.00;0.00;;;10.60;99.90;;;;;;4998492;28;20047;-72
2022/05/21 03:18:07;;;;;;;0.00;0.00;;;10.60;99.90;;;;;;4996971;28;20042;-74
2022/05/21 03:20:35;;;;;;;0.00;0.00;;;10.60;99.90;;;;;;4998349;28;20042;-71
2022/05/21 03:23:03;;;;;;;0.00;0.00;;;10.60;99.90;;;;;;4998129;28;20046;-70
2022/05/21 03:25:32;;;;;;;0.00;0.00;;;10.60;99.90;;;;;;4996898;28;20047;-73
2022/05/21 03:28:00;;;;;;;0.00;0.00;;;10.60;99.90;;;;;;4997906;28;20046;-71
2022/05/21 03:30:29;;;;;;;;;;;10.50;99.90;;;;;;4998433;28;20058;-73
2022/05/21 03:32:57;;;;;;;0.00;0.00;;;10.50;99.90;;;;;;4996685;28;19921;-70
2022/05/21 03:35:25;;;;;;;0.00;0.00;;;10.60;99.90;;;;;;4997666;28;20050;-70
2022/05/21 03:37:54;;;;;;;0.00;0.00;;;10.60;99.90;;;;;;4980084;28;20377;-72
2022/05/21 03:40:25;;;;;;;0.00;0.00;;;10.70;99.90;;;;;;4997651;28;20046;-72
2022/05/21 03:42:54;;;;;;;0.00;0.00;;;10.70;99.90;;;;;;4997818;28;20481;-71
2022/05/21 03:45:22;;;;;;;0.00;0.00;;;10.70;99.90;;;;;;4996415;28;20047;-71
2022/05/21 03:47:51;;;;;;;0.00;0.00;;;10.70;99.90;;;;;;4997642;28;20046;-71
2022/05/21 03:50:22;;;;;;;0.00;0.00;;;10.70;99.90;;;;;;4996531;28;20062;-72
2022/05/21 03:52:50;;;;;;;0.00;0.00;;;10.70;99.90;;;;;;4996342;28;20050;-70
2022/05/21 03:55:17;;;;;;;0.00;0.00;;;10.70;99.90;;;;;;4997646;28;20043;-72
2022/05/21 03:57:45;;;;;;;0.00;0.00;;;10.60;99.90;;;;;;4996505;28;20458;-72
2022/05/21 04:00:15;;;;;;;0.00;0.00;;;10.60;99.90;;;;;;4997352;28;20053;-72
2022/05/21 04:02:43;;;;;;;0.00;0.00;;;10.60;99.90;;;;;;4997403;28;20046;-71
2022/05/21 04:05:12;;;;;;;0.00;0.00;;;10.60;99.90;;;;;;4996564;28;20046;-72
2022/05/21 04:07:40;;;;;;;0.35;0.35;;;10.60;99.90;;;;;;4997157;28;20049;-71
2022/05/21 04:10:12;;;;;;;0.00;0.00;;;10.60;99.90;;;;;;4997303;28;20047;-72
2022/05/21 04:12:41;;;;;;;0.00;0.00;;;10.70;99.90;;;;;;4996116;28;20357;-72
2022/05/21 04:15:10;;;;;;;0.00;0.00;;;10.70;99.90;;;;;;4997106;28;20046;-69
2022/05/21 04:17:38;;;;;;;0.00;0.00;;;10.70;99.90;;;;;;4996419;28;20458;-73
2022/05/21 04:20:09;;;;;;;0.00;0.00;;;10.70;99.90;;;;;;4997082;28;20050;-73
2022/05/21 04:22:37;;;;;;;0.00;0.00;;;10.70;99.90;;;;;;4997227;28;20042;-70
2022/05/21 04:25:06;;;;;;;0.00;0.00;;;10.70;99.90;;;;;;4995887;28;20461;-70
2022/05/21 04:27:41;;;;;;;0.00;0.00;;;10.80;99.90;;;;;;4979913;28;20049;-72
2022/05/21 04:30:28;;;;;;;0.00;0.00;;;10.90;99.90;;;;;;4996800;28;20054;-74
2022/05/21 04:32:57;;;;;;;0.00;0.00;;;10.80;99.90;;;;;;4995831;28;20046;-71
2022/05/21 04:36:17;;;;;;;0.00;0.00;;;10.80;99.90;;;;;;4997249;28;20051;-72
2022/05/21 04:38:14;;;;;;;0.55;0.55;;;10.80;99.90;;;;;;4995444;28;20042;-73
2022/05/21 04:40:43;;;;;;;0.00;0.00;;;10.90;99.90;;;;;;4996605;28;20483;-72
2022/05/21 04:43:10;;;;;;;;;;;10.90;99.90;;;;;;4996448;28;20069;-72
2022/05/21 04:45:38;;;;;;;0.00;0.00;;;10.90;99.90;;;;;;4995334;28;19922;-70
2022/05/21 04:48:07;;;;;;;0.00;0.00;;;10.90;99.90;;;;;;4996460;28;20058;-71
2022/05/21 04:50:37;;;;;;;0.00;0.00;;;10.90;99.90;;;;;;4978825;28;20062;-73
2022/05/21 04:53:05;;;;;;;0.00;0.00;;;11.00;99.90;;;;;;4995329;28;20059;-73
2022/05/21 04:55:33;;;;;;;0.00;0.00;;;11.00;99.90;;;;;;4996255;28;20046;-70
2022/05/21 04:58:04;;;;;;;0.00;0.00;;;11.00;99.90;;;;;;4995198;28;20069;-73
2022/05/21 05:00:32;;;;;;;0.00;0.00;;;11.10;99.90;;;;;;4979723;28;20042;-73
2022/05/21 05:02:59;;;;;;;0.00;0.00;;;11.10;99.90;;;;;;4995901;28;20043;-73
2022/05/21 05:05:27;;;;;;;0.00;0.00;;;11.10;99.90;;;;;;4995022;28;20066;-71
2022/05/21 05:07:54;;;;;;;0.00;0.00;;;11.20;99.90;;;;;;4979236;28;20118;-75
2022/05/21 05:10:22;;;;;;;1.25;1.15;;;11.30;99.90;;;;;;4995878;28;20057;-75
2022/05/21 05:12:50;;;;;;;0.00;0.00;;;11.30;99.90;;;;;;4994900;28;20390;-73
2022/05/21 05:15:17;;;;;;;0.00;0.00;;;11.40;99.90;;;;;;4995889;28;20054;-70
2022/05/21 05:17:45;;;;;;;0.00;0.00;;;11.50;99.90;;;;;;4995210;28;20046;-74
2022/05/21 05:20:12;;;;;;;0.00;0.00;;;11.50;99.90;;;;;;4995924;28;20055;-73
2022/05/21 05:22:40;;;;;;;0.00;0.00;;;11.50;99.90;;;;;;4962992;28;20046;-72
2022/05/21 05:25:08;;;;;;;0.00;0.00;;;11.60;99.90;;;;;;4994614;28;20042;-72
2022/05/21 05:27:35;;;;;;;0.00;0.00;;;11.60;99.90;;;;;;4996213;28;20050;-73
2022/05/21 05:30:04;;;;;;;0.00;0.00;;;11.70;99.90;;;;;;4995828;28;20051;-71
2022/05/21 05:32:32;;;;;;;0.00;0.00;;;11.70;99.90;;;;;;4994984;28;20365;-74
2022/05/21 05:35:00;;;;;;;0.00;0.00;;;11.70;99.90;;;;;;4978703;28;20049;-72
2022/05/21 05:37:28;;;;;;;0.00;0.00;;;11.70;99.90;;;;;;4995774;28;20065;-73
2022/05/21 05:39:56;;;;;;;;;;;11.80;99.90;;;;;;4995050;28;20042;-69
2022/05/21 05:42:25;;;;;;;0.85;0.85;;;11.80;99.90;;;;;;4995711;28;20348;-72
2022/05/21 05:44:54;;;;;;;0.70;0.70;;;11.80;99.90;;;;;;4994478;28;20065;-72
2022/05/21 05:47:21;;;;;;;0.00;0.00;;;11.80;99.90;;;;;;4995549;28;20500;-71
2022/05/21 05:49:49;;;;;;;0.00;0.00;;;11.80;99.90;;;;;;4995698;28;20042;-69
2022/05/21 05:52:17;;;;;;;0.10;0.10;;;11.80;99.90;;;;;;4994235;28;20050;-71
2022/05/21 05:54:44;;;;;;;0.00;0.00;;;11.80;99.90;;;;;;4995656;28;20057;-71
2022/05/21 05:57:12;;;;;;;0.00;0.00;;;11.80;99.90;;;;;;4995333;28;20050;-71
2022/05/21 05:59:49;;;;;;;0.32;0.32;;;11.80;99.90;;;;;;4994289;28;20046;-71
2022/05/21 06:05:18;;;;;;;0.10;0.03;;;11.80;99.90;;;;;;4994212;28;20050;-72
2022/05/21 06:07:48;;;;;;;0.00;0.00;;;11.90;99.90;;;;;;4995353;28;20046;-71
2022/05/21 06:10:20;;;;;;;0.00;0.00;;;11.90;99.90;;;;;;4995320;28;20046;-72
2022/05/21 06:12:48;;;;;;;0.15;0.15;;;12.00;99.90;;;;;;4994353;28;20053;-72
2022/05/21 06:15:15;;;;;;;;;;;12.00;99.90;;;;;;4999838;28;20050;-71
2022/05/21 06:17:43;;;;;;;0.00;0.00;;;12.20;99.90;;;;;;4998412;28;20363;-72
2022/05/21 06:20:14;;;;;;;0.00;0.00;;;12.20;99.90;;;;;;4999468;28;20059;-71
2022/05/21 06:22:44;;;;;;;0.00;0.00;;;12.30;99.90;;;;;;4999762;28;20047;-71
2022/05/21 06:25:17;;;;;;;;;;;12.40;99.90;;;;;;4998639;28;20061;-72
2022/05/21 06:27:46;;;;;;;0.00;0.00;;;12.50;99.90;;;;;;4999297;28;19933;-71
2022/05/21 06:30:15;;;;;;;0.00;0.00;;;12.50;99.90;;;;;;4999240;28;20057;-72
2022/05/21 06:32:43;;;;;;;0.43;0.43;;;12.60;99.90;;;;;;4981215;28;20519;-73
2022/05/21 06:35:11;;;;;;;0.00;0.00;;;12.60;99.90;;;;;;4999064;28;20053;-69
2022/05/21 06:37:39;;;;;;;0.00;0.00;;;12.60;99.90;;;;;;4998437;28;20054;-73
2022/05/21 06:40:09;;;;;;;0.00;0.00;;;12.60;99.90;;;;;;4999202;28;20046;-73
2022/05/21 06:42:37;;;;;;;0.00;0.00;;;12.70;99.90;;;;;;4999139;28;20464;-74
2022/05/21 06:45:06;;;;;;;0.43;0.43;;;12.70;99.90;;;;;;4998321;28;20046;-72
2022/05/21 06:47:33;;;;;;;0.00;0.00;;;12.80;99.90;;;;;;4998706;28;20054;-73
2022/05/21 06:50:02;;;;;;;0.00;0.00;;;12.90;99.90;;;;;;4999190;28;20050;-71
2022/05/21 06:52:30;;;;;;;;;;;13.00;99.90;;;;;;4981111;28;20054;-71
2022/05/21 06:54:58;;;;;;;0.90;0.85;;;13.20;99.90;;;;;;4998941;28;19936;-74
2022/05/21 06:57:28;;;;;;;0.00;0.00;;;13.30;99.90;;;;;;4999358;28;20046;-69
2022/05/21 06:59:56;;;;;;;0.00;0.00;;;13.40;99.90;;;;;;4997542;28;20046;-71
2022/05/21 07:02:24;;;;;;;0.00;0.00;;;13.50;99.90;;;;;;4998915;28;20361;-73
2022/05/21 07:07:43;;;;;;;1.25;1.15;;;13.70;99.90;;;;;;4998178;28;20054;-74
2022/05/21 07:10:31;;;;;;;0.00;0.00;;;13.90;99.90;;;;;;4998143;28;20053;-74
2022/05/21 07:12:59;;;;;;;;;;;14.00;99.90;;;;;;4997296;28;20073;-73
2022/05/21 07:15:27;;;;;;;0.00;0.00;;;14.00;99.90;;;;;;4997860;28;20276;-72
2022/05/21 07:18:00;;;;;;;0.00;0.00;;;14.10;99.90;;;;;;4996844;28;20749;-73
2022/05/21 07:20:28;;;;;;;0.25;0.25;;;14.10;99.90;;;;;;4964405;28;20058;-74
2022/05/21 07:22:57;;;;;;;0.00;0.00;;;14.20;99.90;;;;;;4997858;28;20042;-77
2022/05/21 07:25:27;;;;;;;0.00;0.00;;;14.10;99.90;;;;;;4979507;28;20050;-76
2022/05/21 07:28:01;;;;;;;0.00;0.00;;;14.10;99.90;;;;;;4980683;28;20054;-74
2022/05/21 07:30:29;;;;;;;0.00;0.00;;;14.10;99.90;;;;;;4980737;28;20054;-76
2022/05/21 07:32:57;;;;;;;0.00;0.00;;;14.00;99.90;;;;;;4996584;28;20058;-74
2022/05/21 07:35:26;;;;;;;0.00;0.00;;;13.90;99.90;;;;;;4997144;28;20053;-73
2022/05/21 07:37:54;;;;;;;2.35;1.88;;;14.00;99.90;;;;;;4996578;28;20046;-71
2022/05/21 07:40:26;;;;;;;0.00;0.00;;;13.90;99.90;;;;;;4980415;28;20053;-79
2022/05/21 07:42:55;;;;;;;0.00;0.00;;;13.90;99.90;;;;;;4997449;28;20054;-75
2022/05/21 07:45:23;;;;;;;0.00;0.00;;;13.90;99.90;;;;;;4996383;28;20054;-74
2022/05/21 07:47:52;;;;;;;0.55;0.55;;;13.90;99.90;;;;;;4997103;28;20051;-72
2022/05/21 07:50:20;;;;;;;0.00;0.00;;;13.90;99.90;;;;;;4997350;28;20053;-74
2022/05/21 07:52:48;;;;;;;0.00;0.00;;;13.90;99.90;;;;;;4996198;28;20071;-73
2022/05/21 07:55:16;;;;;;;0.00;0.00;;;13.90;99.90;;;;;;4997167;28;20046;-74
2022/05/21 07:57:43;;;;;;;0.00;0.00;;;13.90;99.90;;;;;;4996403;28;20038;-72
2022/05/21 08:00:17;;;;;;;0.00;0.00;;;14.00;99.90;;;;;;4998024;28;20050;-76
2022/05/21 08:02:46;;;;;;;0.00;0.00;;;14.10;99.90;;;;;;4997358;28;20038;-73
2022/05/21 08:05:13;;;;;;;0.00;0.00;;;14.20;99.90;;;;;;4996264;28;20046;-74
2022/05/21 08:07:43;;;;;;;0.00;0.00;;;14.40;99.90;;;;;;4997188;28;20477;-74
2022/05/21 08:10:11;;;;;;;0.00;0.00;;;14.50;99.90;;;;;;4997251;28;20046;-75
2022/05/21 08:12:39;;;;;;;0.00;0.00;;;14.70;99.90;;;;;;4996257;28;20058;-75
2022/05/21 08:15:07;;;;;;;0.75;0.40;;;15.00;99.90;;;;;;4997266;28;20050;-75
2022/05/21 08:17:35;;;;;;;0.00;0.00;;;15.20;99.90;;;;;;4997080;28;20054;-75
2022/05/21 08:20:04;;;;;;;;;;;15.30;99.90;;;;;;4997389;28;20057;-74
2022/05/21 08:29:46;;;;;;;0.00;0.00;;;15.70;99.90;;;;;;5112858;27;20378;-72
2022/05/21 08:32:17;;;;;;;0.00;0.00;;;15.70;99.90;;;;;;5091554;28;20048;-72
2022/05/21 08:34:45;;;;;;;0.00;0.00;;;15.70;99.90;;;;;;5092714;28;20485;-70
2022/05/21 08:37:13;;;;;;;0.00;0.00;;;15.70;99.90;;;;;;5074835;28;20036;-71
2022/05/21 08:39:43;;;;;;;0.00;0.00;;;15.80;99.90;;;;;;5091008;28;20044;-70
2022/05/21 08:42:24;;;;;;;0.00;0.00;;;15.80;99.90;;;;;;5092259;28;20048;-71
2022/05/21 08:45:07;;;;;;;0.00;0.00;;;15.90;99.90;;;;;;5042945;28;20057;-75
2022/05/21 08:47:37;;;;;;;0.00;0.00;;;16.00;99.90;;;;;;5074681;28;20493;-74
2022/05/21 08:50:13;;;;;;;0.75;0.75;;;16.30;99.90;;;;;;5091079;28;20098;-77
2022/05/21 08:52:56;;;;;;;0.75;0.63;;;16.40;99.90;;;;;;5055884;28;20048;-73
2022/05/21 08:55:31;;;;;;;0.00;0.00;;;16.60;99.90;;;;;;5091986;28;20345;-73
2022/05/21 08:58:21;;;;;;;0.10;0.05;;;16.70;99.90;;;;;;5073500;28;20347;-73
2022/05/21 09:00:50;;;;;;;0.00;0.00;;;16.70;99.90;;;;;;5091744;28;20455;-74
2022/05/21 09:03:21;;;;;;;0.00;0.00;;;16.80;99.90;;;;;;5074105;28;20044;-74
2022/05/21 09:06:02;;;;;;;0.00;0.00;;;16.80;99.90;;;;;;5090509;28;20059;-74
2022/05/21 09:08:55;;;;;;;0.00;0.00;;;16.70;99.90;;;;;;5057727;28;20379;-75
2022/05/21 09:11:40;;;;;;;0.00;0.00;;;16.70;99.90;;;;;;5090487;28;20040;-75
2022/05/21 09:14:29;;;;;;;1.35;0.20;;;16.70;99.90;;;;;;5057121;28;20348;-75
2022/05/21 09:16:56;;;;;;;0.00;0.00;;;16.80;99.90;;;;;;5091405;28;20048;-72
2022/05/21 09:19:44;;;;;;;0.30;0.28;;;16.80;99.90;;;;;;5072465;28;20463;-74
2022/05/21 09:22:15;;;;;;;0.00;0.00;;;16.80;99.90;;;;;;5091401;28;20498;-74
2022/05/21 09:25:20;;;;;;;0.00;0.00;;;16.80;99.90;;;;;;5090378;28;20049;-73
2022/05/21 09:27:49;;;;;;;0.00;0.00;;;16.80;99.90;;;;;;5071920;28;20059;-74
2022/05/21 09:30:28;;;;;;;0.00;0.00;;;16.90;99.90;;;;;;5051897;28;20367;-75
2022/05/21 09:32:57;;;;;;;;;;;17.00;99.90;;;;;;5068491;28;20056;-74
2022/05/21 09:35:28;;;;;;;0.00;0.00;;;17.10;99.90;;;;;;5071019;28;19927;-74
2022/05/21 09:38:11;;;;;;;0.00;0.00;;;17.10;99.90;;;;;;5069637;28;20205;-75
2022/05/21 09:40:40;;;;;;;0.35;0.35;;;17.20;99.90;;;;;;5025850;28;20048;-77
2022/05/21 09:46:26;;;;;;;0.30;0.30;;;17.40;99.90;;;;;;5056248;28;20048;-73
2022/05/21 09:49:11;;;;;;;0.00;0.00;;;17.40;99.90;;;;;;5057406;28;20048;-72
2022/05/21 09:51:40;;;;;;;0.00;0.00;;;17.60;99.90;;;;;;5038885;28;20041;-74
2022/05/21 09:54:28;;;;;;;0.00;0.00;;;17.80;99.90;;;;;;5039341;28;20037;-76
2022/05/21 09:56:57;;;;;;;0.50;0.32;;;18.20;99.90;;;;;;5022822;28;20533;-72
2022/05/21 09:59:28;;;;;;;0.10;0.10;;;18.40;99.90;;;;;;5038720;28;20053;-75
2022/05/21 10:02:01;;;;;;;0.00;0.00;;;18.60;99.90;;;;;;5023227;28;20483;-76
2022/05/21 10:04:43;;;;;;;0.00;0.00;;;18.70;99.90;;;;;;5038421;28;20045;-76
2022/05/21 10:10:58;;;;;;;0.00;0.00;;;18.80;99.90;;;;;;5039868;28;20379;-77
2022/05/21 10:13:05;;;;;;;0.00;0.00;;;19.10;99.00;;;;;;5055766;28;20048;-78
2022/05/21 10:15:40;;;;;;;0.00;0.00;;;19.20;98.90;;;;;;5040025;28;20294;-78
2022/05/21 10:18:11;;;;;;;;;;;19.40;97.70;;;;;;5039346;28;20049;-77
2022/05/21 10:20:42;;;;;;;0.00;0.00;;;19.40;98.80;;;;;;5056644;28;19921;-76
2022/05/21 10:23:25;;;;;;;0.10;0.10;;;19.50;97.40;;;;;;5039103;28;20045;-76
2022/05/21 10:26:02;;;;;;;2.92;1.55;;;19.30;97.50;;;;;;5038232;28;20056;-77
2022/05/21 10:28:54;;;;;;;0.43;0.43;;;19.10;98.10;;;;;;5050809;28;20048;-75
2022/05/21 10:31:29;;;;;;;0.00;0.00;;;19.00;97.00;;;;;;5075186;28;20466;-75
2022/05/21 10:34:18;;;;;;;0.00;0.00;;;18.90;97.20;;;;;;5076757;28;20045;-78
2022/05/21 10:37:04;;;;;;;0.00;0.00;;;18.80;96.60;;;;;;5075769;28;20067;-78
2022/05/21 10:40:09;;;;;;;0.38;0.38;;;18.80;96.40;;;;;;5074491;28;20063;-74
2022/05/21 10:42:47;;;;;;;0.00;0.00;;;18.80;96.90;;;;;;5075757;28;20091;-74
2022/05/21 10:45:16;;;;;;;0.00;0.00;;;18.90;98.80;;;;;;5074243;28;20067;-75
2022/05/21 10:48:01;;;;;;;0.00;0.00;;;18.90;98.50;;;;;;5075289;28;20048;-74
2022/05/21 10:50:32;;;;;;;0.00;0.00;;;18.90;96.50;;;;;;5075811;28;20055;-77
2022/05/21 10:53:24;;;;;;;0.13;0.13;;;18.70;97.50;;;;;;5074219;28;20041;-73
2022/05/21 10:56:12;;;;;;;0.00;0.00;;;18.70;96.70;;;;;;5076038;28;20041;-72
2022/05/21 10:59:00;;;;;;;0.00;0.00;;;18.60;95.80;;;;;;5073888;28;20044;-73
2022/05/21 11:01:42;;;;;;;0.00;0.00;;;18.50;98.00;;;;;;5074966;28;20048;-72
2022/05/21 11:04:24;;;;;;;0.00;0.00;;;18.40;96.10;;;;;;5075916;28;20045;-77
2022/05/21 11:07:22;;;;;;;0.00;0.00;;;18.50;97.70;;;;;;5074795;28;20391;-75
2022/05/21 11:10:08;;;;;;;;;;;18.50;97.20;;;;;;5076115;28;20471;-74
2022/05/21 11:12:58;;;;;;;0.00;0.00;;;18.60;98.80;;;;;;5074439;28;19920;-75
2022/05/21 11:15:41;;;;;;;0.00;0.00;;;18.40;97.10;;;;;;5075473;28;20049;-74
2022/05/21 11:18:41;;;;;;;0.00;0.00;;;18.40;96.20;;;;;;5074761;28;20048;-72
2022/05/21 11:21:29;;;;;;;0.00;0.00;;;18.00;97.10;;;;;;5075673;28;20056;-75
2022/05/21 11:24:03;;;;;;;0.00;0.00;;;18.40;97.10;;;;;;5075863;28;20049;-77
2022/05/21 11:26:49;;;;;;;0.00;0.00;;;18.50;96.90;;;;;;5074279;28;20059;-73
2022/05/21 11:29:33;;;;;;;0.00;0.00;;;18.60;96.90;;;;;;5074126;28;20498;-76
2022/05/21 11:37:56;;;;;;;0.10;0.10;;;19.00;96.00;;;;;;5074158;28;20044;-75
2022/05/21 11:44:55;;;;;;;0.00;0.00;;;19.80;94.50;;;;;;5074892;28;20052;-74
2022/05/21 11:46:52;;;;;;;0.00;0.00;;;20.20;95.40;;;;;;5075074;28;20044;-73
2022/05/21 11:49:41;;;;;;;0.00;0.00;;;20.60;94.50;;;;;;5074663;28;20040;-77
2022/05/21 11:52:26;;;;;;;0.00;0.00;;;20.80;94.70;;;;;;5073244;28;20049;-74
2022/05/21 11:54:54;;;;;;;0.00;0.00;;;21.10;94.20;;;;;;5073921;28;20043;-75
2022/05/21 11:57:35;;;;;;;0.35;0.32;;;21.30;92.90;;;;;;5074135;28;20056;-75
2022/05/21 12:00:07;;;;;;;0.00;0.00;;;21.30;92.80;;;;;;5074050;28;20048;-77
2022/05/21 12:03:05;;;;;;;0.00;0.00;;;21.40;91.50;;;;;;5074039;28;20049;-77
2022/05/21 12:05:44;;;;;;;0.00;0.00;;;21.50;92.40;;;;;;5073600;28;20044;-74
2022/05/21 12:08:23;;;;;;;4.85;2.17;;;21.60;92.90;;;;;;5073937;28;20067;-77
2022/05/21 12:11:28;;;;;;;0.00;0.00;;;21.60;92.60;;;;;;5062993;28;20371;-76
2022/05/21 12:14:24;;;;;;;0.10;0.10;;;21.60;93.50;;;;;;5054636;28;20041;-66
2022/05/21 12:16:58;;;;;;;0.00;0.00;;;21.50;92.70;;;;;;5053782;28;20045;-73
2022/05/21 12:20:04;;;;;;;0.00;0.00;;;21.40;92.90;;;;;;5052778;28;20049;-76
2022/05/21 12:22:37;;;;;;;0.30;0.30;;;21.10;92.40;;;;;;5054730;28;20049;-77
2022/05/21 12:25:07;;;;;;;0.00;0.00;;;21.10;92.90;;;;;;5052956;28;20057;-75
2022/05/21 12:27:51;;;;;;;0.00;0.00;;;21.20;92.10;;;;;;5054355;28;20053;-73
2022/05/21 12:30:29;;;;;;;0.00;0.00;;;21.30;91.30;;;;;;5034406;28;20037;-73
2022/05/21 12:32:57;;;;;;;0.00;0.00;;;21.60;90.70;;;;;;5033629;28;20575;-78
2022/05/21 12:35:34;;;;;;;0.00;0.00;;;21.70;91.70;;;;;;5017252;28;20041;-75
2022/05/21 12:38:07;;;;;;;0.00;0.00;;;22.00;90.30;;;;;;5033490;28;20042;-78
2022/05/21 12:40:52;;;;;;;0.00;0.00;;;22.00;88.20;;;;;;5034340;28;20399;-75
2022/05/21 12:43:20;;;;;;;0.00;0.00;;;21.90;91.10;;;;;;5034470;28;20038;-77
2022/05/21 12:45:50;;;;;;;0.00;0.00;;;21.80;91.00;;;;;;5033377;28;20479;-79
2022/05/21 12:48:29;;;;;;;0.00;0.00;;;21.60;90.50;;;;;;5034811;28;20061;-77
2022/05/21 12:51:07;;;;;;;0.00;0.00;;;21.30;91.20;;;;;;5000228;28;20049;-81
2022/05/21 12:53:57;;;;;;;0.00;0.00;;;21.20;92.30;;;;;;5019595;28;20061;-76
2022/05/21 12:56:29;;;;;;;0.00;0.00;;;21.30;91.80;;;;;;5029521;28;20048;-78
2022/05/21 12:59:04;;;;;;;0.00;0.00;;;21.40;91.50;;;;;;5029685;28;20057;-77
2022/05/21 13:01:34;;;;;;;0.00;0.00;;;21.60;91.40;;;;;;5017111;28;20050;-76
2022/05/21 13:04:20;;;;;;;0.00;0.00;;;21.70;92.40;;;;;;5034244;28;20460;-78
2022/05/21 13:07:11;;;;;;;0.00;0.00;;;21.70;90.90;;;;;;5017296;28;20045;-76
2022/05/21 13:09:54;;;;;;;0.00;0.00;;;21.80;90.10;;;;;;5027009;28;20445;-76
2022/05/21 13:12:21;;;;;;;0.00;0.00;;;22.10;90.00;;;;;;5033102;28;20048;-77
2022/05/21 13:14:51;;;;;;;0.00;0.00;;;22.80;88.70;;;;;;5035206;28;20361;-76
2022/05/21 13:17:55;;;;;;;0.00;0.00;;;23.40;89.80;;;;;;5020567;28;20044;-75
2022/05/21 13:20:34;;;;;;;0.00;0.00;;;23.50;86.20;;;;;;5038031;28;20041;-73
2022/05/21 13:23:23;;;;;;;0.00;0.00;;;23.90;89.90;;;;;;5037997;28;20054;-77
2022/05/21 13:25:54;;;;;;;0.38;0.25;;;24.10;88.40;;;;;;5036982;28;20046;-75
2022/05/21 13:28:25;;;;;;;0.00;0.00;;;24.50;88.70;;;;;;5037630;28;20376;-72
2022/05/21 13:30:52;;;;;;;0.00;0.00;;;24.90;85.20;;;;;;5020333;28;20042;-74
2022/05/21 13:33:26;;;;;;;0.00;0.00;;;24.40;87.80;;;;;;5036901;28;20376;-76
2022/05/21 13:36:03;;;;;;;0.00;0.00;;;24.00;89.80;;;;;;5037971;28;20037;-75
2022/05/21 13:38:37;;;;;;;0.10;0.10;;;23.80;90.00;;;;;;5036727;28;20045;-71
2022/05/21 13:41:10;;;;;;;0.13;0.13;;;23.70;90.70;;;;;;5020354;28;20041;-74
2022/05/21 13:43:49;;;;;;;0.00;0.00;;;23.30;88.20;;;;;;5037664;28;20053;-72
2022/05/21 13:46:32;;;;;;;0.00;0.00;;;24.10;90.10;;;;;;5036455;28;20046;-72
2022/05/21 13:49:21;;;;;;;0.00;0.00;;;23.70;86.50;;;;;;5004001;28;20064;-77
2022/05/21 13:51:50;;;;;;;0.00;0.00;;;23.20;88.70;;;;;;5018790;28;20045;-71
2022/05/21 13:54:18;;;;;;;0.00;0.00;;;22.70;89.20;;;;;;5003918;28;20046;-77